Volunteer, South Dakota
Current Conditions -  °F | °C
As of 4:58 PM on Friday 21 Nov 2014 (Local Time) from KRCA Reporting Station
Clear Clear  
Wind Chill: 36°   Ceiling: Unl
Heat Index: 40°   Visibility: 10mi
Dew Point: 30°   Wind: 5mph
Humidity: 69%   Direction: 220°SW
Pressure: 29.83"   Gusts: NA
Location:  44.4145°N, 103.17°W
Report Text: KRCA 212358Z AUTO 22004KT 10SM CLR 04/M01 A2983 RMK AO2 SLP127 T00431010 10115 20043 53003 $
Loading
Personal Weather Stations






























Interactive Weather Map New forecast layout! Learn more

10-Day Weather Forecast

Advertisements
Track Severe Weather on mobile